Orcas, Washington
Current Conditions -  °F | °C
As of 1:53 AM on Tuesday 21 Oct 2014 (Local Time) from KFHR Reporting Station
Light Rain Light Rain  
Wind Chill: 52°   Ceiling: 1100
Heat Index: 52°   Visibility: 10mi
Dew Point: 51°   Wind: 0mph
Humidity: 97%   Direction: NA
Pressure: 29.77"   Gusts: NA
Location:  48.6°N, 122.94°W
Report Text: KFHR 210853Z AUTO 00000KT 10SM -RA OVC011 11/11 A2977 RMK AO2 RAE02B34 SLP081 P0000 60000 T01110106 51005
Loading
Personal Weather Stations






























Interactive Weather Map
Tropical Storm Tracking
New forecast layout! Learn more

10-Day Weather Forecast

Advertisements
Track Severe Weather on mobile